Time;durP1;ratioP1;P1;durP2;ratioP2;P2;SDS_P1;SDS_P2;PMS_P1;PMS_P2;Temp;Humidity;BMP_temperature;BMP_pressure;BME280_temperature;BME280_humidity;BME280_pressure;Samples;Min_cycle;Max_cycle;Signal;HPM_P1;HPM_P2
2023/09/10 00:01:10;;;;;;;5.68;5.18;;;23.30;99.90;;;;;;4942335;28;20189;-69
2023/09/10 00:03:36;;;;;;;6.13;5.63;;;23.30;99.90;;;;;;4942138;28;20186;-69
2023/09/10 00:06:05;;;;;;;6.00;5.50;;;23.20;99.90;;;;;;4941679;28;20209;-70
2023/09/10 00:08:32;;;;;;;6.45;5.90;;;23.20;99.90;;;;;;4958015;28;20284;-70
2023/09/10 00:10:58;;;;;;;5.88;5.45;;;23.20;99.90;;;;;;4958063;28;20192;-69
2023/09/10 00:13:25;;;;;;;6.38;5.78;;;23.20;99.90;;;;;;4973974;28;20308;-69
2023/09/10 00:15:52;;;;;;;6.85;6.25;;;23.20;99.90;;;;;;4941478;28;20205;-69
2023/09/10 00:18:19;;;;;;;6.00;5.50;;;23.20;99.90;;;;;;4949914;28;20189;-69
2023/09/10 00:20:45;;;;;;;5.57;5.07;;;23.20;99.90;;;;;;4966031;28;20181;-69
2023/09/10 00:23:12;;;;;;;6.65;6.15;;;23.20;99.90;;;;;;4973602;28;20193;-69
2023/09/10 00:25:38;;;;;;;6.38;5.82;;;23.20;99.90;;;;;;4957462;28;20209;-70
2023/09/10 00:28:04;;;;;;;6.65;6.15;;;23.20;99.90;;;;;;4957749;28;20557;-69
2023/09/10 00:30:30;;;;;;;6.40;5.90;;;23.20;99.90;;;;;;4957440;28;20212;-69
2023/09/10 00:32:56;;;;;;;6.30;5.80;;;23.20;99.90;;;;;;4941298;28;20193;-69
2023/09/10 00:35:22;;;;;;;6.45;5.85;;;23.20;99.90;;;;;;4945069;28;20210;-69
2023/09/10 00:37:47;;;;;;;6.40;5.90;;;23.20;99.90;;;;;;4945292;28;20213;-69
2023/09/10 00:40:14;;;;;;;6.63;6.03;;;23.20;99.90;;;;;;4938281;28;20184;-69
2023/09/10 00:42:40;;;;;;;6.30;5.68;;;23.20;99.90;;;;;;4938157;29;20182;-69
2023/09/10 00:45:09;;;;;;;5.97;5.50;;;23.20;99.90;;;;;;4973189;28;20293;-69
2023/09/10 00:47:40;;;;;;;6.22;5.70;;;23.20;99.90;;;;;;4957214;28;20189;-69
2023/09/10 00:50:09;;;;;;;6.32;5.75;;;23.20;99.90;;;;;;4945337;28;20260;-69
2023/09/10 00:52:40;;;;;;;5.88;5.38;;;23.20;99.90;;;;;;4956812;28;20193;-69
2023/09/10 00:55:07;;;;;;;6.22;5.63;;;23.20;99.90;;;;;;4948657;28;20217;-70
2023/09/10 00:57:32;;;;;;;7.60;6.25;;;23.20;99.90;;;;;;4943916;28;20552;-69
2023/09/10 00:59:59;;;;;;;5.88;5.38;;;23.20;99.90;;;;;;4940694;28;20201;-69
2023/09/10 01:02:26;;;;;;;6.18;5.68;;;23.20;99.90;;;;;;4973411;28;20244;-69
2023/09/10 01:04:52;;;;;;;6.70;6.10;;;23.20;99.90;;;;;;4969825;28;20300;-69
2023/09/10 01:07:18;;;;;;;5.85;5.35;;;23.20;99.90;;;;;;4956427;28;20265;-69
2023/09/10 01:09:44;;;;;;;6.22;5.72;;;23.20;99.90;;;;;;4956883;28;20244;-71
2023/09/10 01:12:24;;;;;;;6.45;5.95;;;23.20;99.90;;;;;;4948618;28;20192;-69
2023/09/10 01:15:33;;;;;;;6.75;6.15;;;23.20;99.90;;;;;;4954218;28;20228;-69
2023/09/10 01:18:34;;;;;;;5.85;5.35;;;23.10;99.90;;;;;;4955641;28;20209;-69
2023/09/10 01:21:11;;;;;;;6.18;5.68;;;23.20;99.90;;;;;;4944020;28;20312;-69
2023/09/10 01:24:03;;;;;;;6.47;5.75;;;23.20;99.90;;;;;;4956175;28;20208;-69
2023/09/10 01:26:29;;;;;;;6.20;5.70;;;23.20;99.90;;;;;;4955640;28;20209;-69
2023/09/10 01:28:54;;;;;;;6.45;5.85;;;23.20;99.90;;;;;;4940911;28;20189;-69
2023/09/10 01:31:20;;;;;;;7.18;6.57;;;23.20;99.90;;;;;;4956865;28;20182;-69
2023/09/10 01:33:53;;;;;;;6.97;6.38;;;23.10;99.90;;;;;;4956263;28;20202;-71
2023/09/10 01:36:38;;;;;;;6.47;5.97;;;23.20;99.90;;;;;;4956593;28;20225;-69
2023/09/10 01:39:25;;;;;;;6.22;5.63;;;23.10;99.90;;;;;;4956350;28;20272;-69
2023/09/10 01:41:51;;;;;;;5.90;5.40;;;23.10;99.90;;;;;;4954542;28;20189;-69
2023/09/10 01:44:19;;;;;;;6.30;5.80;;;23.10;99.90;;;;;;4956019;28;20189;-69
2023/09/10 01:46:46;;;;;;;6.05;5.65;;;23.20;99.90;;;;;;4955924;28;20201;-68
2023/09/10 01:49:12;;;;;;;6.32;5.72;;;23.10;99.90;;;;;;4943761;28;20216;-69
2023/09/10 01:51:37;;;;;;;6.35;5.80;;;23.10;99.90;;;;;;4943763;28;20236;-69
2023/09/10 01:54:03;;;;;;;6.05;5.55;;;23.10;99.90;;;;;;4939793;28;20221;-69
2023/09/10 01:56:29;;;;;;;6.30;5.80;;;23.20;99.90;;;;;;4972244;28;20237;-69
2023/09/10 01:58:55;;;;;;;6.43;5.82;;;23.20;99.90;;;;;;4939712;28;20220;-69
2023/09/10 02:01:21;;;;;;;6.65;6.05;;;23.10;99.90;;;;;;4940230;28;20189;-70
2023/09/10 02:03:47;;;;;;;6.13;5.63;;;23.10;99.90;;;;;;4955688;28;20546;-69
2023/09/10 02:06:13;;;;;;;5.90;5.40;;;23.10;99.90;;;;;;4955779;28;20224;-69
2023/09/10 02:08:38;;;;;;;6.35;5.82;;;23.10;99.90;;;;;;4951404;28;20217;-69
2023/09/10 02:11:05;;;;;;;7.38;6.78;;;23.10;99.90;;;;;;4937053;29;20194;-69
2023/09/10 02:13:31;;;;;;;6.50;5.93;;;23.10;99.90;;;;;;4955958;28;20252;-69
2023/09/10 02:15:57;;;;;;;6.57;5.70;;;23.10;99.90;;;;;;4972841;28;20213;-69
2023/09/10 02:18:23;;;;;;;6.65;6.05;;;23.10;99.90;;;;;;4973460;28;20190;-69
2023/09/10 02:20:48;;;;;;;6.47;5.88;;;23.10;99.90;;;;;;4955690;28;20665;-69
2023/09/10 02:23:14;;;;;;;6.30;5.80;;;23.10;99.90;;;;;;4939554;28;20181;-70
2023/09/10 02:25:40;;;;;;;6.30;5.80;;;23.10;99.90;;;;;;4944198;29;20254;-70
2023/09/10 02:28:07;;;;;;;6.22;5.50;;;23.10;99.90;;;;;;4955769;28;20209;-69
2023/09/10 02:30:34;;;;;;;6.15;5.65;;;23.10;99.90;;;;;;4939077;28;20278;-69
2023/09/10 02:33:00;;;;;;;6.22;5.72;;;23.10;99.90;;;;;;4953454;28;20305;-69
2023/09/10 02:35:25;;;;;;;6.05;5.45;;;23.10;99.90;;;;;;4939544;28;20684;-70
2023/09/10 02:37:51;;;;;;;6.07;5.53;;;23.10;99.90;;;;;;4939670;28;20193;-69
2023/09/10 02:40:17;;;;;;;6.38;5.88;;;23.10;99.90;;;;;;4955696;28;20188;-69
2023/09/10 02:42:43;;;;;;;6.68;6.07;;;23.10;99.90;;;;;;4936643;28;20197;-69
2023/09/10 02:45:10;;;;;;;6.00;5.60;;;23.10;99.90;;;;;;4939483;28;20213;-69
2023/09/10 02:47:36;;;;;;;6.88;6.38;;;23.10;99.90;;;;;;4955692;28;20680;-69
2023/09/10 02:50:02;;;;;;;6.32;5.72;;;23.10;99.90;;;;;;4939610;28;20193;-69
2023/09/10 02:52:30;;;;;;;6.30;5.80;;;23.10;99.90;;;;;;4955333;28;20189;-70
2023/09/10 02:54:57;;;;;;;6.47;5.90;;;23.10;99.90;;;;;;4938300;28;20210;-70
2023/09/10 02:57:22;;;;;;;6.38;5.75;;;23.10;99.90;;;;;;4942040;28;20208;-69
2023/09/10 02:59:48;;;;;;;7.47;6.88;;;23.10;99.90;;;;;;4948979;28;20205;-69
2023/09/10 03:02:14;;;;;;;6.43;5.93;;;23.10;99.90;;;;;;4922064;29;20194;-70
2023/09/10 03:04:39;;;;;;;6.90;6.32;;;23.10;99.90;;;;;;4959249;28;20193;-69
2023/09/10 03:07:06;;;;;;;6.68;6.07;;;23.10;99.90;;;;;;4964043;28;20579;-69
2023/09/10 03:09:32;;;;;;;6.60;6.00;;;23.10;99.90;;;;;;4923908;29;20195;-69
2023/09/10 03:12:20;;;;;;;6.18;5.68;;;23.10;99.90;;;;;;4951145;28;20297;-70
2023/09/10 03:14:46;;;;;;;6.22;5.72;;;23.10;99.90;;;;;;4934621;28;20228;-68
2023/09/10 03:17:12;;;;;;;6.03;5.53;;;23.10;99.90;;;;;;4947723;29;20191;-69
2023/09/10 03:19:38;;;;;;;6.60;6.00;;;23.10;99.90;;;;;;4931789;29;20218;-69
2023/09/10 03:22:04;;;;;;;6.40;5.90;;;23.10;99.90;;;;;;4939764;28;20241;-69
2023/09/10 03:24:34;;;;;;;6.18;5.68;;;23.10;99.90;;;;;;4955189;28;20218;-69
2023/09/10 03:27:00;;;;;;;6.57;5.97;;;23.10;99.90;;;;;;4958906;28;20186;-69
2023/09/10 03:29:25;;;;;;;6.20;5.70;;;23.10;99.90;;;;;;4943601;28;20723;-69
2023/09/10 03:31:52;;;;;;;6.15;5.57;;;23.10;99.90;;;;;;4960691;28;20189;-70
2023/09/10 03:34:20;;;;;;;6.10;5.55;;;23.10;99.90;;;;;;4945324;28;20216;-71
2023/09/10 03:36:45;;;;;;;6.63;6.03;;;23.10;99.90;;;;;;4950805;28;20205;-69
2023/09/10 03:39:12;;;;;;;6.28;5.78;;;23.10;99.90;;;;;;4958397;28;20188;-70
2023/09/10 03:41:38;;;;;;;6.78;6.18;;;23.00;99.90;;;;;;4958448;28;20217;-69
2023/09/10 03:44:04;;;;;;;5.80;5.40;;;23.00;99.90;;;;;;4958087;28;20264;-69
2023/09/10 03:46:30;;;;;;;6.03;5.53;;;23.10;99.90;;;;;;4942329;28;20205;-70
2023/09/10 03:48:55;;;;;;;6.10;5.60;;;23.00;99.90;;;;;;4958315;28;20564;-69
2023/09/10 03:51:21;;;;;;;5.80;5.40;;;23.00;99.90;;;;;;4942214;28;20198;-69
2023/09/10 03:53:47;;;;;;;6.07;5.57;;;23.10;99.90;;;;;;4958175;28;20209;-69
2023/09/10 03:56:14;;;;;;;6.40;5.90;;;23.00;99.90;;;;;;4958164;28;20344;-69
2023/09/10 03:58:39;;;;;;;6.80;6.10;;;23.10;99.90;;;;;;4950049;28;20312;-69
2023/09/10 04:01:05;;;;;;;6.80;6.30;;;23.00;99.90;;;;;;4958170;28;20260;-69
2023/09/10 04:03:31;;;;;;;6.60;6.00;;;23.00;99.90;;;;;;4958024;28;20198;-69
2023/09/10 04:05:57;;;;;;;6.82;6.10;;;23.00;99.90;;;;;;4942186;28;20209;-70
2023/09/10 04:08:23;;;;;;;6.10;5.38;;;23.10;99.90;;;;;;4941998;28;20272;-69
2023/09/10 04:10:49;;;;;;;6.32;5.72;;;23.00;99.90;;;;;;4941757;28;20306;-69
2023/09/10 04:13:14;;;;;;;6.28;5.78;;;23.00;99.90;;;;;;4957390;28;20201;-70
2023/09/10 04:15:40;;;;;;;6.13;5.63;;;23.00;99.90;;;;;;4957592;28;20221;-69
2023/09/10 04:18:07;;;;;;;6.72;6.20;;;23.10;99.90;;;;;;4958035;28;20189;-69
2023/09/10 04:20:33;;;;;;;6.15;5.65;;;23.10;99.90;;;;;;4956159;28;20202;-69
2023/09/10 04:22:59;;;;;;;6.53;5.93;;;23.00;99.90;;;;;;4945547;28;20191;-70
2023/09/10 04:25:25;;;;;;;6.32;5.72;;;23.00;99.90;;;;;;4941786;28;20216;-69
2023/09/10 04:27:50;;;;;;;6.13;5.70;;;23.00;99.90;;;;;;4938132;28;20236;-69
2023/09/10 04:30:16;;;;;;;6.35;5.85;;;23.00;99.90;;;;;;4957400;28;20204;-70
2023/09/10 04:32:42;;;;;;;6.55;5.85;;;23.10;99.90;;;;;;4957810;28;20213;-69
2023/09/10 04:35:09;;;;;;;6.60;6.10;;;23.00;99.90;;;;;;4941371;28;20283;-69
2023/09/10 04:37:35;;;;;;;6.43;5.93;;;23.00;99.90;;;;;;4949446;28;20190;-70
2023/09/10 04:40:07;;;;;;;6.22;5.75;;;23.00;99.90;;;;;;4957317;28;20197;-69
2023/09/10 04:42:34;;;;;;;6.70;6.20;;;23.00;99.90;;;;;;4960261;28;20186;-70
2023/09/10 04:45:00;;;;;;;6.13;5.63;;;23.00;99.90;;;;;;4940829;28;20213;-69
2023/09/10 04:47:25;;;;;;;6.68;6.18;;;23.00;99.90;;;;;;4946355;28;20182;-69
2023/09/10 04:49:52;;;;;;;6.80;6.30;;;23.00;99.90;;;;;;4961373;28;20192;-70
2023/09/10 04:52:18;;;;;;;6.50;5.90;;;23.00;99.90;;;;;;4957320;28;20189;-69
2023/09/10 04:54:43;;;;;;;6.82;6.32;;;23.00;99.90;;;;;;4935749;28;20217;-69
2023/09/10 04:57:10;;;;;;;7.05;6.35;;;23.00;99.90;;;;;;4962730;28;20340;-69
2023/09/10 04:59:36;;;;;;;6.30;5.70;;;23.00;99.90;;;;;;4965299;28;20190;-69
2023/09/10 05:02:04;;;;;;;6.63;6.13;;;23.00;99.90;;;;;;4947750;28;20284;-69
2023/09/10 05:04:30;;;;;;;6.93;6.32;;;23.00;99.90;;;;;;4940748;28;20197;-69
2023/09/10 05:06:57;;;;;;;6.38;5.88;;;23.00;99.90;;;;;;4957100;28;20190;-69
2023/09/10 05:09:23;;;;;;;6.72;6.13;;;23.00;99.90;;;;;;4973052;28;20648;-70
2023/09/10 05:11:49;;;;;;;6.10;5.60;;;23.00;99.90;;;;;;4956874;28;20194;-69
2023/09/10 05:14:17;;;;;;;5.53;5.00;;;23.00;99.90;;;;;;4940454;28;20217;-69
2023/09/10 05:16:43;;;;;;;6.07;5.57;;;23.00;99.90;;;;;;4956505;28;20210;-70
2023/09/10 05:19:08;;;;;;;5.45;5.05;;;23.00;99.90;;;;;;4945992;28;20181;-69
2023/09/10 05:21:34;;;;;;;6.20;5.80;;;22.90;99.90;;;;;;4945620;28;20240;-69
2023/09/10 05:24:00;;;;;;;6.40;5.90;;;23.00;99.90;;;;;;4939876;28;20277;-69
2023/09/10 05:26:26;;;;;;;5.72;5.30;;;23.00;99.90;;;;;;4945071;28;20209;-69
2023/09/10 05:28:53;;;;;;;5.90;5.50;;;23.00;99.90;;;;;;4956531;28;20299;-69
2023/09/10 05:31:19;;;;;;;5.68;5.25;;;23.00;99.90;;;;;;4956596;28;20209;-69
2023/09/10 05:33:45;;;;;;;7.07;6.55;;;23.00;99.90;;;;;;4950158;28;20248;-69
2023/09/10 05:36:10;;;;;;;6.53;5.95;;;23.00;99.90;;;;;;4942391;29;20217;-69
2023/09/10 05:38:36;;;;;;;6.00;5.57;;;23.00;99.90;;;;;;4957101;28;20229;-69
2023/09/10 05:41:04;;;;;;;6.53;6.03;;;22.90;99.90;;;;;;4940217;28;20198;-70
2023/09/10 05:43:31;;;;;;;6.13;5.53;;;23.00;99.90;;;;;;4956085;28;20228;-70
2023/09/10 05:45:58;;;;;;;6.30;5.80;;;22.90;99.90;;;;;;4940210;28;20301;-69
2023/09/10 05:48:24;;;;;;;6.07;5.57;;;22.90;99.90;;;;;;4944857;28;20186;-70
2023/09/10 05:50:56;;;;;;;6.45;5.95;;;23.00;99.90;;;;;;4970343;28;20197;-69
2023/09/10 05:53:23;;;;;;;6.50;5.95;;;22.90;99.90;;;;;;4956250;28;20197;-70
2023/09/10 05:55:49;;;;;;;6.68;6.07;;;22.90;99.90;;;;;;4944407;28;20205;-69
2023/09/10 05:58:16;;;;;;;6.20;5.70;;;23.00;99.90;;;;;;4939998;28;20268;-69
2023/09/10 06:00:43;;;;;;;6.03;5.60;;;23.00;99.90;;;;;;4942461;28;20256;-69
2023/09/10 06:03:09;;;;;;;6.60;6.10;;;23.00;99.90;;;;;;4944400;28;20194;-69
2023/09/10 06:05:36;;;;;;;6.10;5.60;;;23.00;99.90;;;;;;4944198;28;20212;-69
2023/09/10 06:08:02;;;;;;;5.68;5.25;;;22.90;99.90;;;;;;4940169;28;20232;-69
2023/09/10 06:10:28;;;;;;;6.50;5.90;;;22.90;99.90;;;;;;4944339;28;20228;-69
2023/09/10 06:12:54;;;;;;;6.35;5.85;;;22.90;99.90;;;;;;4955834;28;20186;-69
2023/09/10 06:15:20;;;;;;;6.43;5.82;;;22.90;99.90;;;;;;4943760;28;20221;-69
2023/09/10 06:17:46;;;;;;;6.30;5.80;;;22.90;99.90;;;;;;4956041;28;20189;-69
2023/09/10 06:20:13;;;;;;;6.30;5.80;;;22.90;99.90;;;;;;4955753;28;20216;-71
2023/09/10 06:22:38;;;;;;;6.20;5.70;;;22.90;99.90;;;;;;4943933;28;20190;-69
2023/09/10 06:25:05;;;;;;;6.53;6.03;;;22.90;99.90;;;;;;4955590;28;20213;-69
2023/09/10 06:27:31;;;;;;;6.50;6.00;;;22.90;99.90;;;;;;4947485;28;20186;-69
2023/09/10 06:29:56;;;;;;;6.65;6.05;;;22.90;99.90;;;;;;4940047;28;20197;-70
2023/09/10 06:32:23;;;;;;;6.15;5.75;;;22.90;99.90;;;;;;4955713;28;20194;-68
2023/09/10 06:34:49;;;;;;;6.18;5.68;;;22.90;99.90;;;;;;4939178;28;20225;-69
2023/09/10 06:37:15;;;;;;;6.18;5.57;;;22.90;99.90;;;;;;4960210;28;20245;-70
2023/09/10 06:39:42;;;;;;;6.90;6.20;;;23.00;99.90;;;;;;4945948;28;20185;-70
2023/09/10 06:42:12;;;;;;;6.25;5.75;;;22.90;99.90;;;;;;4952186;28;20192;-70
2023/09/10 06:44:43;;;;;;;6.93;6.32;;;22.90;99.90;;;;;;4961932;28;20197;-68
2023/09/10 06:47:12;;;;;;;6.07;5.57;;;22.90;99.90;;;;;;4962110;28;20253;-69
2023/09/10 06:49:38;;;;;;;6.60;6.10;;;22.90;99.90;;;;;;4944513;28;20197;-71
2023/09/10 06:52:05;;;;;;;6.85;6.20;;;22.90;99.90;;;;;;4946155;28;20248;-68
2023/09/10 06:54:32;;;;;;;6.65;6.15;;;22.90;99.90;;;;;;4961652;28;20217;-70
2023/09/10 06:57:01;;;;;;;7.15;6.55;;;22.90;99.90;;;;;;4943156;28;20186;-68
2023/09/10 06:59:27;;;;;;;6.75;6.18;;;22.90;99.90;;;;;;4949703;28;20198;-68
2023/09/10 07:01:53;;;;;;;7.05;6.45;;;22.90;99.90;;;;;;4961579;28;20192;-69
2023/09/10 07:04:22;;;;;;;7.68;7.07;;;22.90;99.90;;;;;;4953475;28;20185;-69
2023/09/10 07:06:52;;;;;;;7.15;6.55;;;22.90;99.90;;;;;;4948142;28;20194;-69
2023/09/10 07:09:23;;;;;;;7.50;6.90;;;22.90;99.90;;;;;;4949271;28;20185;-69
2023/09/10 07:11:50;;;;;;;7.43;6.82;;;22.90;99.90;;;;;;4961359;28;20204;-69
2023/09/10 07:14:17;;;;;;;8.27;7.47;;;22.90;99.90;;;;;;4961446;28;20208;-69
2023/09/10 07:16:44;;;;;;;8.13;7.40;;;22.90;99.90;;;;;;4961499;28;20209;-69
2023/09/10 07:19:11;;;;;;;8.05;7.40;;;22.90;99.90;;;;;;4961791;28;20715;-68
2023/09/10 07:21:37;;;;;;;7.97;7.28;;;22.90;99.90;;;;;;4961595;28;20203;-69
2023/09/10 07:24:06;;;;;;;7.82;7.15;;;22.90;99.90;;;;;;4945420;28;20181;-69
2023/09/10 07:26:33;;;;;;;8.43;7.57;;;22.90;99.90;;;;;;4961369;28;20296;-70
2023/09/10 07:28:59;;;;;;;8.63;7.93;;;23.00;99.90;;;;;;4944089;28;20691;-71
2023/09/10 07:31:25;;;;;;;8.35;7.65;;;22.90;99.90;;;;;;4947402;29;20186;-69
2023/09/10 07:33:51;;;;;;;8.93;8.13;;;22.90;99.90;;;;;;4960783;28;20259;-69
2023/09/10 07:36:17;;;;;;;9.15;8.35;;;22.90;99.90;;;;;;4961403;28;20212;-69
2023/09/10 07:38:42;;;;;;;9.63;8.68;;;22.90;99.90;;;;;;4948679;28;20194;-71
2023/09/10 07:41:08;;;;;;;8.55;7.85;;;23.00;99.90;;;;;;4947774;28;20186;-68
2023/09/10 07:43:34;;;;;;;8.85;8.05;;;23.00;99.90;;;;;;4945258;28;20251;-69
2023/09/10 07:45:59;;;;;;;9.40;8.60;;;23.00;99.90;;;;;;4978402;28;20210;-70
2023/09/10 07:48:25;;;;;;;9.38;8.48;;;23.00;99.90;;;;;;4942653;28;20201;-69
2023/09/10 07:50:59;;;;;;;9.07;8.27;;;23.00;99.90;;;;;;4942364;28;20190;-70
2023/09/10 07:53:25;;;;;;;9.88;8.88;;;23.00;99.90;;;;;;4957997;28;20198;-69
2023/09/10 07:55:51;;;;;;;9.02;8.32;;;23.10;99.90;;;;;;4943526;28;20209;-71
2023/09/10 07:58:17;;;;;;;10.38;9.38;;;23.00;99.90;;;;;;4958252;28;20213;-69
2023/09/10 08:00:43;;;;;;;10.02;9.13;;;23.10;99.90;;;;;;4944891;28;20276;-68
2023/09/10 08:03:09;;;;;;;10.98;10.00;;;23.00;99.90;;;;;;4958280;28;20189;-69
2023/09/10 08:05:34;;;;;;;10.10;9.30;;;23.10;99.90;;;;;;4941767;28;20218;-69
2023/09/10 08:08:04;;;;;;;10.02;9.18;;;23.10;99.90;;;;;;4958143;28;20189;-69
2023/09/10 08:10:30;;;;;;;10.30;9.40;;;23.10;99.90;;;;;;4958040;28;20194;-69
2023/09/10 08:12:57;;;;;;;10.20;9.40;;;23.10;99.90;;;;;;4956485;28;20204;-69
2023/09/10 08:15:22;;;;;;;10.25;9.45;;;23.10;99.90;;;;;;4942838;28;20243;-68
2023/09/10 08:17:55;;;;;;;10.35;9.20;;;23.20;99.90;;;;;;4954461;28;20194;-69
2023/09/10 08:20:22;;;;;;;10.20;9.30;;;23.10;99.90;;;;;;4970482;28;20178;-69
2023/09/10 08:22:48;;;;;;;9.77;8.85;;;23.20;99.90;;;;;;4951225;28;20194;-69
2023/09/10 08:25:14;;;;;;;9.85;8.98;;;23.20;99.90;;;;;;4956050;28;20213;-67
2023/09/10 08:27:40;;;;;;;9.88;9.02;;;23.20;99.90;;;;;;4968531;28;20195;-69
2023/09/10 08:30:09;;;;;;;10.10;9.25;;;23.20;99.90;;;;;;4937537;28;20194;-69
2023/09/10 08:32:36;;;;;;;9.95;9.07;;;23.20;99.90;;;;;;4939388;28;20216;-69
2023/09/10 08:35:04;;;;;;;10.43;9.43;;;23.20;99.90;;;;;;4939828;28;20228;-70
2023/09/10 08:37:31;;;;;;;9.60;8.80;;;23.20;99.90;;;;;;4957520;28;20683;-69
2023/09/10 08:39:57;;;;;;;9.82;8.98;;;23.20;99.90;;;;;;4957267;28;20604;-69
2023/09/10 08:43:08;;;;;;;9.93;9.00;;;23.20;99.90;;;;;;4941732;28;20193;-68
2023/09/10 08:45:34;;;;;;;10.63;9.63;;;23.20;99.90;;;;;;4938835;28;20641;-68
2023/09/10 08:48:01;;;;;;;10.82;9.73;;;23.20;99.90;;;;;;4957402;28;20248;-69
2023/09/10 08:50:28;;;;;;;10.30;9.40;;;23.30;99.90;;;;;;4957391;28;20213;-69
2023/09/10 08:52:57;;;;;;;10.77;9.77;;;23.20;99.90;;;;;;4957247;28;20189;-69
2023/09/10 08:55:25;;;;;;;10.25;9.45;;;23.30;99.90;;;;;;4974108;28;20216;-69
2023/09/10 08:57:56;;;;;;;10.25;9.35;;;23.30;99.90;;;;;;4954998;28;20187;-69
2023/09/10 09:00:23;;;;;;;10.05;9.25;;;23.30;99.90;;;;;;4955842;28;20205;-69
2023/09/10 09:02:50;;;;;;;10.55;9.63;;;23.30;99.90;;;;;;4940946;28;20336;-68
2023/09/10 09:05:16;;;;;;;10.07;9.25;;;23.30;99.90;;;;;;4956706;28;20300;-69
2023/09/10 09:07:54;;;;;;;10.25;9.35;;;23.30;99.90;;;;;;4943558;28;20284;-69
2023/09/10 09:10:30;;;;;;;9.50;8.68;;;23.30;99.90;;;;;;4952350;28;20185;-68
2023/09/10 09:13:07;;;;;;;9.65;8.85;;;23.30;99.90;;;;;;4941338;28;20216;-69
2023/09/10 09:15:36;;;;;;;9.40;8.60;;;23.30;99.90;;;;;;4942809;28;20213;-68
2023/09/10 09:18:03;;;;;;;9.73;8.93;;;23.30;99.90;;;;;;4941156;28;20194;-72
2023/09/10 09:20:32;;;;;;;10.57;9.68;;;23.30;99.90;;;;;;4974152;28;20193;-68
2023/09/10 09:23:10;;;;;;;9.07;8.30;;;23.30;99.90;;;;;;4974264;28;20719;-68
2023/09/10 09:25:36;;;;;;;9.75;8.85;;;23.30;99.90;;;;;;4940586;28;20217;-70
2023/09/10 09:28:04;;;;;;;9.48;8.65;;;23.30;99.90;;;;;;4956546;28;20185;-69
2023/09/10 09:30:30;;;;;;;9.65;8.85;;;23.40;99.90;;;;;;4956700;28;20202;-67
2023/09/10 09:32:56;;;;;;;9.75;8.82;;;23.40;99.90;;;;;;4956543;28;20209;-68
2023/09/10 09:35:22;;;;;;;10.73;8.93;;;23.40;99.90;;;;;;4956035;28;20222;-69
2023/09/10 09:37:48;;;;;;;10.05;9.13;;;23.40;99.90;;;;;;4956131;28;20193;-69
2023/09/10 09:40:18;;;;;;;9.43;8.52;;;23.40;99.90;;;;;;4971333;28;20268;-69
2023/09/10 09:42:45;;;;;;;9.40;8.60;;;23.30;99.90;;;;;;4956034;28;20202;-69
2023/09/10 09:45:10;;;;;;;9.10;8.30;;;23.30;99.90;;;;;;4956039;28;20218;-68
2023/09/10 09:47:36;;;;;;;9.68;8.85;;;23.40;99.90;;;;;;4940145;28;20189;-68
2023/09/10 09:50:03;;;;;;;9.50;8.60;;;23.30;99.90;;;;;;4957060;28;20519;-69
2023/09/10 09:52:29;;;;;;;9.05;8.15;;;23.30;99.90;;;;;;4972734;28;20240;-70
2023/09/10 09:54:55;;;;;;;8.98;8.18;;;23.30;99.90;;;;;;4955840;28;20300;-68
2023/09/10 09:57:21;;;;;;;9.20;8.45;;;23.30;99.90;;;;;;4956197;28;20201;-68
2023/09/10 09:59:49;;;;;;;8.93;8.13;;;23.40;99.90;;;;;;4955924;28;20255;-69
2023/09/10 10:02:18;;;;;;;9.70;8.77;;;23.40;99.90;;;;;;4941876;28;20771;-68
2023/09/10 10:04:45;;;;;;;9.48;8.68;;;23.40;99.90;;;;;;4973012;28;20208;-69
2023/09/10 10:07:17;;;;;;;9.38;8.38;;;23.40;99.90;;;;;;4948578;28;20305;-69
2023/09/10 10:09:42;;;;;;;8.63;7.82;;;23.40;99.90;;;;;;4955701;28;20193;-69
2023/09/10 10:12:09;;;;;;;9.50;8.65;;;23.40;99.90;;;;;;4972791;28;20186;-69
2023/09/10 10:14:36;;;;;;;8.48;7.72;;;23.40;99.90;;;;;;4939534;28;20229;-69
2023/09/10 10:17:05;;;;;;;8.07;7.47;;;23.40;99.90;;;;;;4971793;28;20279;-69
2023/09/10 10:19:32;;;;;;;8.35;7.75;;;23.40;99.90;;;;;;4956924;28;20280;-71
2023/09/10 10:22:00;;;;;;;9.82;8.43;;;23.40;99.90;;;;;;4947153;28;20636;-69
2023/09/10 10:24:26;;;;;;;8.88;8.07;;;23.60;99.90;;;;;;4936407;29;20190;-69
2023/09/10 10:26:53;;;;;;;10.43;8.45;;;23.70;99.90;;;;;;4953692;28;20193;-69
2023/09/10 10:29:21;;;;;;;12.18;7.70;;;23.80;99.90;;;;;;4956371;28;20193;-69
2023/09/10 10:31:58;;;;;;;8.10;7.30;;;23.90;99.90;;;;;;4939230;28;20190;-69
2023/09/10 10:34:27;;;;;;;8.98;8.15;;;23.70;99.90;;;;;;4947570;28;20263;-69
2023/09/10 10:37:28;;;;;;;12.07;7.85;;;23.60;99.90;;;;;;4940811;28;20194;-69
2023/09/10 10:40:12;;;;;;;8.88;8.07;;;23.60;99.90;;;;;;4955383;28;20197;-69
2023/09/10 10:42:58;;;;;;;9.52;7.53;;;23.60;99.90;;;;;;4955735;28;20276;-69
2023/09/10 10:45:25;;;;;;;10.88;8.02;;;23.50;99.90;;;;;;4961178;28;20704;-70
2023/09/10 10:47:52;;;;;;;9.20;7.93;;;23.50;99.90;;;;;;4939937;28;20204;-70
2023/09/10 10:50:26;;;;;;;9.68;8.35;;;23.50;99.90;;;;;;4939899;28;20198;-69
2023/09/10 10:53:02;;;;;;;8.27;7.50;;;23.50;99.90;;;;;;4940906;28;20200;-69
2023/09/10 10:55:29;;;;;;;9.35;8.40;;;23.50;99.90;;;;;;4955067;28;20221;-69
2023/09/10 10:57:55;;;;;;;8.55;7.75;;;23.50;99.90;;;;;;4940442;28;20197;-68
2023/09/10 11:00:22;;;;;;;9.65;8.38;;;23.50;99.90;;;;;;4972782;28;20233;-69
2023/09/10 11:03:06;;;;;;;8.93;8.02;;;23.50;99.90;;;;;;4955141;28;20190;-69
2023/09/10 11:08:26;;;;;;;8.75;7.95;;;23.50;99.90;;;;;;4949751;28;20209;-69
2023/09/10 11:10:52;;;;;;;8.30;7.40;;;23.50;99.90;;;;;;4963160;28;20189;-68
2023/09/10 11:13:18;;;;;;;8.35;7.53;;;23.50;99.90;;;;;;4936181;29;20322;-69
2023/09/10 11:16:06;;;;;;;10.07;9.20;;;23.50;99.90;;;;;;4952454;28;20221;-69
2023/09/10 11:18:34;;;;;;;9.10;8.27;;;23.50;99.90;;;;;;4939534;28;20193;-68
2023/09/10 11:21:08;;;;;;;8.88;8.07;;;23.50;99.90;;;;;;4939255;28;20193;-68
2023/09/10 11:23:36;;;;;;;9.82;8.82;;;23.50;99.90;;;;;;4941971;28;20545;-68
2023/09/10 11:26:14;;;;;;;8.93;8.23;;;23.50;99.90;;;;;;4950516;28;20212;-67
2023/09/10 11:28:52;;;;;;;9.60;8.35;;;23.50;99.90;;;;;;4958916;28;20201;-68
2023/09/10 11:31:33;;;;;;;8.85;8.05;;;23.50;99.90;;;;;;4932161;28;20224;-72
2023/09/10 11:34:17;;;;;;;9.40;8.50;;;23.50;99.90;;;;;;4958697;28;20291;-68
2023/09/10 11:36:50;;;;;;;8.30;7.60;;;23.50;99.90;;;;;;4958305;28;20219;-69
2023/09/10 11:39:18;;;;;;;8.50;7.80;;;23.50;99.90;;;;;;4942995;28;20225;-72
2023/09/10 11:41:52;;;;;;;8.75;7.85;;;23.50;99.90;;;;;;4941178;28;20208;-69
2023/09/10 11:44:18;;;;;;;9.07;8.27;;;23.50;99.90;;;;;;4942231;28;20280;-69
2023/09/10 11:46:44;;;;;;;9.20;8.30;;;23.50;99.90;;;;;;4942249;28;20210;-69
2023/09/10 11:49:11;;;;;;;8.55;7.65;;;23.50;99.90;;;;;;4966440;28;20193;-69
2023/09/10 11:51:47;;;;;;;8.55;7.75;;;23.50;99.90;;;;;;4942380;28;20194;-68
2023/09/10 11:54:16;;;;;;;9.23;8.32;;;23.50;99.90;;;;;;4950876;28;20213;-69
2023/09/10 11:56:49;;;;;;;9.80;8.90;;;23.50;99.90;;;;;;4966223;28;20220;-69
2023/09/10 11:59:16;;;;;;;9.63;8.82;;;23.50;99.90;;;;;;4935525;28;20229;-68
2023/09/10 12:01:42;;;;;;;9.70;8.82;;;23.50;99.90;;;;;;4942502;28;20201;-70
2023/09/10 12:04:08;;;;;;;8.38;7.68;;;23.50;99.90;;;;;;4968020;28;20656;-70
2023/09/10 12:06:34;;;;;;;8.95;8.15;;;23.50;99.90;;;;;;4962157;28;20309;-68
2023/09/10 12:09:00;;;;;;;8.38;7.78;;;23.60;99.90;;;;;;4957308;28;20193;-69
2023/09/10 12:11:29;;;;;;;8.70;8.00;;;23.60;99.90;;;;;;4975319;28;20264;-68
2023/09/10 12:13:55;;;;;;;8.93;8.15;;;23.60;99.90;;;;;;4957641;28;20221;-69
2023/09/10 12:16:22;;;;;;;8.63;7.93;;;23.50;99.90;;;;;;4945448;29;20230;-70
2023/09/10 12:18:48;;;;;;;8.48;7.78;;;23.50;99.90;;;;;;4955400;28;20205;-68
2023/09/10 12:21:15;;;;;;;8.52;7.82;;;23.60;99.90;;;;;;4942139;28;20286;-68
2023/09/10 12:23:44;;;;;;;8.82;8.07;;;23.50;99.90;;;;;;4975097;28;20196;-68
2023/09/10 12:26:11;;;;;;;8.82;8.00;;;23.60;99.90;;;;;;4941497;28;20210;-69
2023/09/10 12:28:38;;;;;;;8.93;8.13;;;23.50;99.90;;;;;;4957970;28;20194;-68
2023/09/10 12:31:05;;;;;;;8.60;7.80;;;23.50;99.90;;;;;;4955716;28;20244;-68
2023/09/10 12:33:32;;;;;;;8.50;7.72;;;23.50;99.90;;;;;;4954648;28;20254;-70
2023/09/10 12:35:57;;;;;;;8.23;7.53;;;23.50;99.90;;;;;;4942825;28;20239;-69
2023/09/10 12:38:24;;;;;;;8.00;7.40;;;23.50;99.90;;;;;;4944039;29;20191;-68
2023/09/10 12:40:50;;;;;;;8.63;7.72;;;23.50;99.90;;;;;;4955343;28;20207;-68
2023/09/10 12:43:25;;;;;;;8.00;7.30;;;23.50;99.90;;;;;;4941696;28;20276;-68
2023/09/10 12:45:51;;;;;;;8.35;7.55;;;23.60;99.90;;;;;;4956840;28;20244;-68
2023/09/10 12:48:18;;;;;;;8.07;7.32;;;23.50;99.90;;;;;;4941661;28;20308;-68
2023/09/10 12:50:49;;;;;;;8.13;7.43;;;23.50;99.90;;;;;;4957428;28;20194;-68
2023/09/10 12:53:15;;;;;;;8.18;7.55;;;23.60;99.90;;;;;;4950251;28;20202;-68